Hot Springs, VA

4:49 AM EST on February 25, 2017 (GMT -0500)
Ingalls

Weather History for KHSP - January, 2014

Change the Weather History Date:

Wednesday, January 22, 2014

  Actual Average Record
Temperature  
Mean Temperature 0 °F -  
Max Temperature 6 °F 30 °F 55 °F (1999)
Min Temperature -5 °F 16 °F -5 °F (2014)
Degree Days  
Heating Degree Days 64    
Moisture  
Dew Point -5 °F    
Average Humidity 74    
Maximum Humidity 92    
Minimum Humidity 56    
Precipitation  
Precipitation 0.00 in - - ()
Sea Level Pressure  
Sea Level Pressure 29.75 in    
Wind  
Wind Speed 16 mph (WNW)    
Max Wind Speed 28 mph    
Max Gust Speed 32 mph    
Visibility 9 miles    
Events Snow    
Averages and records for this station are not official NWS values.
T = Trace of Precipitation, MM = Missing Value Source: NWS Daily Summary

Daily Weather History Graph

Daily Weather History Graph

Search for Another Location

Airport or City:

Trip Planner

Search our weather history database for the weather conditions in past years. The results will help you decide how hot, cold, wet, or windy it might be!

Date:

Astronomy

Jan. 22, 2014 Rise Set
Actual Time 7:30 AM EST 5:31 PM EST
Civil Twilight 7:02 AM EST 5:59 PM EST
Nautical Twilight 6:30 AM EST 6:31 PM EST
Astronomical Twilight 5:59 AM EST 7:03 PM EST
Moon 11:55 PM EST (1/22) 10:37 AM EST (1/22)
Length of Visible Light 10h 57m
Length of Day
10h 00m
Waning Gibbous, 65% of the Moon is Illuminated
Jan 22
Waning Gibbous
Jan 24
Last Quarter
Jan 30
New
Feb 6
First Quarter
Feb 14
Full

Hourly Weather History & Observations

Time (EST) Temp. Windchill Dew Point Humidity Pressure Visibility Wind Dir Wind Speed Gust Speed Precip Events Conditions
12:15 AM 5.0 °F -12.3 °F 1.4 °F 85% 29.69 in 10.0 mi NW 13.8 mph 20.7 mph N/A   Overcast
12:35 AM 3.2 °F -18.1 °F 1.4 °F 92% 29.69 in 7.0 mi WNW 20.7 mph 25.3 mph N/A   Overcast
12:55 AM 3.2 °F -16.5 °F 1.4 °F 92% 29.68 in 7.0 mi WNW 17.3 mph 25.3 mph N/A   Mostly Cloudy
1:15 AM 3.2 °F -15.3 °F 1.4 °F 92% 29.68 in 7.0 mi WNW 15.0 mph 24.2 mph N/A   Mostly Cloudy
1:35 AM 3.2 °F -16.5 °F 1.4 °F 92% 29.67 in 7.0 mi WNW 17.3 mph 27.6 mph N/A   Overcast
1:55 AM 3.2 °F -17.6 °F 1.4 °F 92% 29.67 in 7.0 mi WNW 19.6 mph 25.3 mph N/A   Overcast
2:15 AM 3.2 °F -16.5 °F -0.4 °F 85% 29.67 in 7.0 mi WNW 17.3 mph 28.8 mph N/A   Overcast
2:35 AM 1.4 °F -18.2 °F -0.4 °F 92% 29.68 in 7.0 mi NW 16.1 mph 25.3 mph N/A   Overcast
2:55 AM 1.4 °F -16.9 °F -0.4 °F 92% 29.68 in 10.0 mi WNW 13.8 mph 21.9 mph N/A   Overcast
3:15 AM 1.4 °F -15.3 °F -0.4 °F 92% 29.69 in 10.0 mi WNW 11.5 mph 23.0 mph N/A   Overcast
3:35 AM 1.4 °F -16.1 °F -2.2 °F 85% 29.69 in 10.0 mi WNW 12.7 mph 20.7 mph N/A   Overcast
3:55 AM -0.4 °F -20.5 °F -2.2 °F 92% 29.68 in 10.0 mi NW 16.1 mph 21.9 mph N/A   Overcast
4:15 AM -0.4 °F -19.9 °F -2.2 °F 92% 29.69 in 10.0 mi WNW 15.0 mph 25.3 mph N/A   Overcast
4:35 AM -0.4 °F -20.5 °F -4.0 °F 85% 29.69 in 10.0 mi WNW 16.1 mph 24.2 mph N/A   Mostly Cloudy
4:55 AM -0.4 °F -20.5 °F -4.0 °F 85% 29.70 in 10.0 mi WNW 16.1 mph 21.9 mph N/A   Mostly Cloudy
5:15 AM -2.2 °F -24.7 °F -5.8 °F 85% 29.70 in 10.0 mi WNW 19.6 mph 24.2 mph N/A   Overcast
5:35 AM -2.2 °F -26.2 °F -5.8 °F 85% 29.70 in 10.0 mi West 23.0 mph - N/A   Scattered Clouds
5:55 AM -2.2 °F -26.2 °F -5.8 °F 85% 29.70 in 5.0 mi WNW 23.0 mph 29.9 mph N/A   Clear
6:15 AM -4.0 °F -27.6 °F -7.6 °F 85% 29.70 in 5.0 mi WNW 20.7 mph 27.6 mph N/A   Clear
6:35 AM -4.0 °F -30.4 °F -7.6 °F 85% 29.70 in 4.0 mi WNW 27.6 mph 32.2 mph N/A Snow Light Snow
6:55 AM -4.0 °F -29.1 °F -7.6 °F 85% 29.70 in 4.0 mi WNW 24.2 mph 32.2 mph N/A   Clear
7:15 AM -5.8 °F -29.4 °F -7.6 °F 92% 29.70 in 4.0 mi WNW 19.6 mph 28.8 mph N/A   Clear
7:35 AM -5.8 °F -29.4 °F -7.6 °F 92% 29.70 in 2.5 mi WNW 19.6 mph 29.9 mph N/A   Clear
7:55 AM -5.8 °F -29.4 °F -9.4 °F 84% 29.69 in 5.0 mi NW 19.6 mph 31.1 mph N/A   Clear
8:15 AM -5.8 °F -28.8 °F -7.6 °F 92% 29.71 in 5.0 mi WNW 18.4 mph 29.9 mph N/A   Clear
8:35 AM -5.8 °F -28.8 °F -7.6 °F 92% 29.72 in 7.0 mi WNW 18.4 mph 24.2 mph N/A   Clear
8:55 AM -5.8 °F -24.4 °F -7.6 °F 92% 29.73 in 10.0 mi WNW 11.5 mph 20.7 mph N/A   Clear
9:15 AM -5.8 °F -26.0 °F -7.6 °F 92% 29.74 in 10.0 mi NW 13.8 mph 18.4 mph N/A   Clear
9:35 AM -4.0 °F -22.1 °F -7.6 °F 85% 29.75 in 10.0 mi WNW 11.5 mph 21.9 mph N/A   Clear
9:55 AM -2.2 °F -20.7 °F -7.6 °F 78% 29.76 in 10.0 mi WNW 12.7 mph 19.6 mph N/A   Clear
10:15 AM -2.2 °F -22.2 °F -7.6 °F 78% 29.77 in 10.0 mi WNW 15.0 mph 19.6 mph N/A   Clear
10:35 AM -2.2 °F -19.9 °F -9.4 °F 71% 29.77 in 10.0 mi WNW 11.5 mph - N/A   Clear
10:55 AM -0.4 °F -16.7 °F -7.6 °F 72% 29.77 in 10.0 mi NW 10.4 mph 16.1 mph N/A   Clear
11:15 AM -0.4 °F -16.7 °F -7.6 °F 72% 29.77 in 10.0 mi West 10.4 mph - N/A   Clear
11:35 AM 1.4 °F -13.5 °F -7.6 °F 66% 29.77 in 7.0 mi WNW 9.2 mph - N/A   Clear
11:55 AM 1.4 °F -13.5 °F -7.6 °F 66% 29.77 in 10.0 mi West 9.2 mph - N/A   Clear
12:15 PM 3.2 °F -13.1 °F -7.6 °F 61% 29.76 in 10.0 mi West 11.5 mph - N/A   Clear
12:55 PM 3.2 °F -13.9 °F -7.6 °F 61% 29.75 in 10.0 mi West 12.7 mph 16.1 mph N/A   Clear
1:15 PM 5.0 °F -9.1 °F -7.6 °F 56% 29.74 in 10.0 mi WNW 9.2 mph - N/A   Clear
1:35 PM 6.8 °F -7.8 °F -5.8 °F 56% 29.74 in 10.0 mi WNW 10.4 mph - N/A   Clear
1:55 PM 6.8 °F -8.6 °F -5.8 °F 56% 29.74 in 10.0 mi WNW 11.5 mph 17.3 mph N/A   Clear
2:15 PM 6.8 °F -7.8 °F -5.8 °F 56% 29.75 in 10.0 mi WNW 10.4 mph - N/A   Clear
2:35 PM 6.8 °F -9.3 °F -5.8 °F 56% 29.75 in 5.0 mi West 12.7 mph - N/A   Haze
2:55 PM 6.8 °F -10.7 °F -5.8 °F 56% 29.76 in 3.0 mi WSW 15.0 mph - N/A   Haze
3:15 PM 6.8 °F -4.8 °F -5.8 °F 56% 29.75 in 10.0 mi West 6.9 mph - N/A   Clear
3:35 PM 6.8 °F -10.0 °F -5.8 °F 56% 29.76 in 10.0 mi West 13.8 mph 18.4 mph N/A   Clear
3:55 PM 6.8 °F -10.0 °F -5.8 °F 56% 29.77 in 7.0 mi West 13.8 mph 17.3 mph N/A   Clear
4:15 PM 6.8 °F -7.8 °F -5.8 °F 56% 29.77 in 10.0 mi West 10.4 mph - N/A   Clear
4:35 PM 5.0 °F -11.6 °F -5.8 °F 61% 29.77 in 10.0 mi West 12.7 mph - N/A   Mostly Cloudy
4:55 PM 5.0 °F -11.6 °F -5.8 °F 61% 29.78 in 10.0 mi West 12.7 mph - N/A   Overcast
5:15 PM 5.0 °F -12.3 °F -5.8 °F 61% 29.78 in 10.0 mi West 13.8 mph - N/A   Overcast
5:35 PM 3.2 °F -13.1 °F -5.8 °F 66% 29.77 in 10.0 mi West 11.5 mph - N/A   Overcast
5:55 PM 3.2 °F -14.6 °F -5.8 °F 66% 29.78 in 10.0 mi West 13.8 mph - N/A   Overcast
6:15 PM 3.2 °F -15.3 °F -5.8 °F 66% 29.79 in 10.0 mi West 15.0 mph - N/A   Overcast
6:35 PM 3.2 °F -15.3 °F -5.8 °F 66% 29.79 in 10.0 mi West 15.0 mph 20.7 mph N/A   Overcast
6:55 PM 3.2 °F -13.9 °F -5.8 °F 66% 29.79 in 10.0 mi West 12.7 mph - N/A   Overcast
7:15 PM 3.2 °F -16.5 °F -5.8 °F 66% 29.80 in 10.0 mi West 17.3 mph - N/A   Overcast
7:35 PM 3.2 °F -16.5 °F -5.8 °F 66% 29.80 in 10.0 mi West 17.3 mph 24.2 mph N/A   Overcast
7:55 PM 5.0 °F -14.2 °F -5.8 °F 61% 29.81 in 10.0 mi West 17.3 mph - N/A   Overcast
8:15 PM 3.2 °F -16.5 °F -5.8 °F 66% 29.80 in 10.0 mi West 17.3 mph 24.2 mph N/A   Overcast
8:35 PM 3.2 °F -17.6 °F -4.0 °F 72% 29.81 in 10.0 mi West 19.6 mph 28.8 mph N/A   Overcast
8:55 PM 5.0 °F -14.7 °F -4.0 °F 66% 29.80 in 10.0 mi West 18.4 mph 23.0 mph N/A   Overcast
9:15 PM 5.0 °F -15.2 °F -4.0 °F 66% 29.80 in 10.0 mi West 19.6 mph 25.3 mph N/A   Overcast
9:35 PM 5.0 °F -17.1 °F -5.8 °F 61% 29.80 in 10.0 mi West 24.2 mph 28.8 mph N/A   Overcast
9:55 PM 5.0 °F -15.7 °F -4.0 °F 66% 29.80 in 10.0 mi West 20.7 mph 27.6 mph N/A   Overcast
10:15 PM 5.0 °F -16.2 °F -5.8 °F 61% 29.81 in 10.0 mi West 21.9 mph 27.6 mph N/A   Mostly Cloudy
10:35 PM 5.0 °F -15.2 °F -5.8 °F 61% 29.81 in 10.0 mi West 19.6 mph 32.2 mph N/A   Scattered Clouds
10:55 PM 5.0 °F -15.7 °F -5.8 °F 61% 29.82 in 10.0 mi West 20.7 mph 28.8 mph N/A   Clear
11:15 PM 5.0 °F -16.2 °F -5.8 °F 61% 29.82 in 10.0 mi West 21.9 mph 29.9 mph N/A   Mostly Cloudy
11:35 PM 3.2 °F -18.6 °F -5.8 °F 66% 29.82 in 10.0 mi West 21.9 mph 29.9 mph N/A   Overcast
11:55 PM 3.2 °F -19.0 °F -5.8 °F 66% 29.82 in 7.0 mi West 23.0 mph 32.2 mph N/A   Overcast